Time;durP1;ratioP1;P1;durP2;ratioP2;P2;SDS_P1;SDS_P2;PMS_P1;PMS_P2;Temp;Humidity;BMP_temperature;BMP_pressure;BME280_temperature;BME280_humidity;BME280_pressure;Samples;Min_cycle;Max_cycle;Signal;HPM_P1;HPM_P2
2021/07/04 00:00:01;;;;;;;4.53;3.23;;;20.20;1.00;;;;;;5031548;28;20444;-81
2021/07/04 00:02:29;;;;;;;5.00;3.30;;;20.10;1.00;;;;;;5032361;28;20464;-81
2021/07/04 00:04:57;;;;;;;3.60;3.30;;;20.10;99.90;;;;;;5031889;28;20538;-81
2021/07/04 00:07:25;;;;;;;3.33;3.03;;;20.10;99.90;;;;;;5032450;28;21030;-83
2021/07/04 00:09:53;;;;;;;3.40;3.10;;;20.10;99.90;;;;;;5029059;28;20979;-83
2021/07/04 00:12:23;;;;;;;5.10;3.73;;;20.10;99.90;;;;;;5029010;28;20480;-84
2021/07/04 00:14:51;;;;;;;4.33;3.57;;;20.00;99.90;;;;;;5023866;28;20459;-82
2021/07/04 00:17:19;;;;;;;3.50;3.10;;;20.00;99.90;;;;;;5030951;28;20529;-83
2021/07/04 00:19:47;;;;;;;4.33;3.93;;;20.10;99.90;;;;;;5028274;28;20510;-81
2021/07/04 00:22:15;;;;;;;3.23;2.93;;;20.10;99.90;;;;;;5030975;28;20520;-82
2021/07/04 00:24:43;;;;;;;4.10;3.80;;;20.20;99.90;;;;;;5032943;28;20543;-82
2021/07/04 00:27:11;;;;;;;4.10;3.70;;;20.20;99.90;;;;;;5033211;28;20506;-83
2021/07/04 00:29:41;;;;;;;4.27;3.83;;;20.30;99.90;;;;;;5028793;28;20463;-81
2021/07/04 00:32:09;;;;;;;4.50;4.00;;;20.20;99.90;;;;;;5031159;28;20907;-82
2021/07/04 00:34:37;;;;;;;4.10;3.70;;;20.20;99.90;;;;;;5030883;28;21021;-82
2021/07/04 00:37:06;;;;;;;5.20;4.80;;;20.30;99.90;;;;;;5030868;28;20491;-82
2021/07/04 00:39:34;;;;;;;4.60;4.23;;;20.30;99.90;;;;;;5033274;28;20440;-82
2021/07/04 00:42:02;;;;;;;5.37;4.30;;;20.30;1.00;;;;;;5033188;28;20486;-82
2021/07/04 00:44:30;;;;;;;6.37;4.20;;;20.30;99.90;;;;;;5031398;28;21372;-84
2021/07/04 00:47:00;;;;;;;7.00;5.30;;;20.40;1.00;;;;;;5031873;28;20539;-83
2021/07/04 00:49:28;;;;;;;3.50;3.30;;;20.40;1.00;;;;;;5032614;28;20449;-83
2021/07/04 00:51:56;;;;;;;3.37;3.13;;;20.50;1.00;;;;;;5032881;28;20478;-84
2021/07/04 00:54:25;;;;;;;4.60;4.17;;;20.50;1.00;;;;;;5030298;28;20457;-82
2021/07/04 00:56:53;;;;;;;3.97;3.43;;;20.40;1.00;;;;;;5032172;28;20452;-83
2021/07/04 00:59:22;;;;;;;4.20;3.70;;;20.40;99.90;;;;;;5031627;28;20544;-84
2021/07/04 01:01:52;;;;;;;4.37;3.97;;;20.30;1.00;;;;;;5031978;28;20449;-83
2021/07/04 01:04:21;;;;;;;4.13;3.00;;;20.20;1.00;;;;;;5028464;28;20598;-82
2021/07/04 01:06:50;;;;;;;6.27;3.83;;;20.10;1.00;;;;;;5031019;28;20440;-82
2021/07/04 01:09:18;;;;;;;3.93;3.63;;;20.10;1.10;;;;;;5025206;28;20972;-82
2021/07/04 01:11:47;;;;;;;5.50;3.70;;;20.00;99.90;;;;;;5030183;28;20467;-82
2021/07/04 01:14:16;;;;;;;4.00;3.57;;;19.90;99.90;;;;;;5030598;28;20484;-81
2021/07/04 01:16:45;;;;;;;3.93;3.57;;;20.00;99.90;;;;;;5029695;28;20448;-82
2021/07/04 01:19:16;;;;;;;4.57;3.97;;;20.00;1.00;;;;;;5024025;28;20443;-82
2021/07/04 01:21:46;;;;;;;3.80;3.40;;;20.10;99.90;;;;;;5027997;28;20453;-81
2021/07/04 01:24:17;;;;;;;4.83;3.40;;;20.10;99.90;;;;;;5031330;28;20472;-82
2021/07/04 01:26:45;;;;;;;4.20;3.90;;;20.10;99.90;;;;;;5030390;28;20457;-80
2021/07/04 01:29:13;;;;;;;5.33;3.70;;;20.10;1.00;;;;;;5033230;28;20452;-80
2021/07/04 01:31:41;;;;;;;3.90;3.60;;;20.20;1.00;;;;;;5031872;28;20522;-78
2021/07/04 01:34:09;;;;;;;4.37;3.97;;;20.20;21.50;;;;;;5031653;28;20863;-80
2021/07/04 01:36:38;;;;;;;4.80;3.27;;;20.20;1.00;;;;;;5025183;28;20481;-82
2021/07/04 01:39:07;;;;;;;4.77;4.37;;;20.20;99.90;;;;;;5032352;28;20556;-81
2021/07/04 01:41:37;;;;;;;4.13;3.30;;;20.20;1.00;;;;;;5032507;28;20437;-81
2021/07/04 01:44:05;;;;;;;3.80;2.90;;;20.20;4.60;;;;;;5020197;28;20489;-81
2021/07/04 01:46:34;;;;;;;3.60;3.30;;;20.20;99.90;;;;;;5030671;28;20510;-80
2021/07/04 01:49:02;;;;;;;4.23;3.27;;;20.30;99.90;;;;;;5016645;28;20453;-81
2021/07/04 01:51:30;;;;;;;4.50;4.10;;;20.30;1.00;;;;;;5033210;28;21042;-81
2021/07/04 01:53:58;;;;;;;3.80;3.50;;;20.30;1.00;;;;;;5032567;28;20483;-81
2021/07/04 01:56:26;;;;;;;4.07;3.73;;;20.40;1.00;;;;;;5032300;28;20460;-81
2021/07/04 01:58:56;;;;;;;4.03;3.63;;;20.40;1.00;;;;;;5033380;28;21105;-81
2021/07/04 02:01:24;;;;;;;4.20;3.80;;;20.40;1.00;;;;;;5032749;28;20852;-81
2021/07/04 02:03:52;;;;;;;4.67;4.20;;;20.30;1.00;;;;;;5028786;28;20816;-81
2021/07/04 02:06:20;;;;;;;3.93;3.53;;;20.30;1.00;;;;;;5025899;28;20961;-81
2021/07/04 02:08:49;;;;;;;4.40;3.87;;;20.20;1.00;;;;;;5030660;28;21157;-81
2021/07/04 02:11:17;;;;;;;5.00;3.97;;;20.10;99.90;;;;;;5029898;28;20517;-81
2021/07/04 02:13:45;;;;;;;4.13;3.73;;;20.10;99.90;;;;;;5030286;28;20483;-80
2021/07/04 02:16:14;;;;;;;4.93;3.87;;;20.10;99.90;;;;;;5030422;28;20444;-80
2021/07/04 02:18:43;;;;;;;5.23;4.30;;;20.20;99.90;;;;;;5027808;28;20462;-80
2021/07/04 02:21:11;;;;;;;5.40;4.07;;;20.20;99.90;;;;;;5029936;28;20459;-82
2021/07/04 02:23:39;;;;;;;4.80;4.40;;;20.10;99.90;;;;;;5026748;28;20472;-83
2021/07/04 02:26:08;;;;;;;6.07;4.90;;;20.10;99.90;;;;;;5029866;28;20453;-83
2021/07/04 02:28:36;;;;;;;4.73;4.33;;;20.10;1.00;;;;;;5029297;28;20575;-82
2021/07/04 02:31:04;;;;;;;4.50;3.83;;;20.10;99.90;;;;;;5029841;28;20464;-80
2021/07/04 02:33:33;;;;;;;5.10;4.70;;;20.20;99.90;;;;;;5030789;28;20749;-80
2021/07/04 02:36:01;;;;;;;4.30;3.90;;;20.20;99.90;;;;;;5027107;28;21019;-80
2021/07/04 02:38:31;;;;;;;6.13;4.10;;;20.30;99.90;;;;;;5013452;28;20476;-82
2021/07/04 02:40:59;;;;;;;4.50;3.70;;;20.20;99.90;;;;;;5023745;28;20935;-82
2021/07/04 02:43:27;;;;;;;4.73;4.33;;;20.20;99.90;;;;;;5028377;28;20460;-81
2021/07/04 02:45:55;;;;;;;5.07;4.57;;;20.20;99.90;;;;;;5028884;28;20467;-81
2021/07/04 02:48:24;;;;;;;5.07;4.60;;;20.10;99.90;;;;;;5022817;28;20540;-81
2021/07/04 02:50:54;;;;;;;4.57;4.17;;;20.10;99.90;;;;;;5029363;28;20452;-81
2021/07/04 02:53:22;;;;;;;5.67;4.37;;;20.00;1.00;;;;;;5022142;28;20492;-81
2021/07/04 02:55:50;;;;;;;7.00;4.37;;;19.90;1.00;;;;;;5028946;28;20671;-81
2021/07/04 02:58:18;;;;;;;4.40;4.00;;;19.90;71.50;;;;;;5029338;28;20464;-82
2021/07/04 03:00:46;;;;;;;4.50;3.77;;;19.90;99.90;;;;;;5033076;28;20452;-82
2021/07/04 03:03:14;;;;;;;4.90;4.47;;;19.90;99.90;;;;;;5033051;28;21036;-82
2021/07/04 03:05:43;;;;;;;5.10;4.40;;;20.00;1.00;;;;;;5036387;28;20448;-81
2021/07/04 03:08:12;;;;;;;5.20;4.43;;;20.10;1.00;;;;;;5033126;28;20464;-80
2021/07/04 03:10:40;;;;;;;4.97;4.30;;;20.10;99.90;;;;;;5034960;28;20463;-81
2021/07/04 03:13:08;;;;;;;4.60;4.20;;;20.10;99.90;;;;;;5029391;28;20555;-81
2021/07/04 03:15:37;;;;;;;5.20;4.73;;;20.10;99.90;;;;;;5014570;28;20454;-81
2021/07/04 03:18:05;;;;;;;5.70;4.23;;;20.10;1.00;;;;;;5030891;28;20460;-81
2021/07/04 03:20:33;;;;;;;6.20;4.10;;;20.10;1.00;;;;;;5033255;28;20492;-81
2021/07/04 03:23:01;;;;;;;5.60;5.00;;;20.10;99.90;;;;;;5033621;28;20472;-81
2021/07/04 03:25:31;;;;;;;4.73;3.70;;;20.20;99.90;;;;;;5033576;28;20518;-81
2021/07/04 03:27:59;;;;;;;4.20;3.90;;;20.30;90.30;;;;;;5032994;28;20436;-81
2021/07/04 03:30:27;;;;;;;5.00;4.10;;;20.30;38.10;;;;;;5035177;28;20455;-80
2021/07/04 03:32:56;;;;;;;6.70;4.80;;;20.30;42.10;;;;;;5032289;28;20576;-81
2021/07/04 03:35:24;;;;;;;4.77;4.33;;;20.40;1.00;;;;;;5014566;28;21160;-81
2021/07/04 03:37:52;;;;;;;3.77;3.47;;;20.40;1.00;;;;;;5047539;28;20478;-81
2021/07/04 03:40:20;;;;;;;4.63;4.27;;;20.30;99.90;;;;;;5035409;28;20439;-80
2021/07/04 03:42:50;;;;;;;6.13;4.60;;;20.30;99.90;;;;;;5032044;28;20464;-81
2021/07/04 03:45:18;;;;;;;4.40;4.03;;;20.20;99.90;;;;;;5033565;28;20968;-80
2021/07/04 03:47:47;;;;;;;5.73;4.80;;;20.20;1.00;;;;;;5031690;28;20506;-80
2021/07/04 03:50:15;;;;;;;5.97;4.33;;;20.20;99.90;;;;;;5033233;28;20459;-81
2021/07/04 03:52:44;;;;;;;4.50;3.93;;;20.10;1.00;;;;;;5032595;28;20991;-81
2021/07/04 03:55:14;;;;;;;4.73;4.33;;;20.10;1.00;;;;;;5017611;28;20460;-80
2021/07/04 03:57:43;;;;;;;3.97;3.57;;;20.10;1.00;;;;;;5030034;28;20529;-81
2021/07/04 04:00:14;;;;;;;4.50;4.00;;;20.10;1.00;;;;;;5033632;28;20449;-81
2021/07/04 04:02:43;;;;;;;4.60;4.20;;;20.00;99.90;;;;;;5032399;28;21164;-80
2021/07/04 04:05:13;;;;;;;4.57;4.17;;;20.00;99.90;;;;;;5031827;28;20990;-81
2021/07/04 04:07:42;;;;;;;5.03;4.10;;;19.90;99.90;;;;;;5033331;28;21001;-79
2021/07/04 04:10:12;;;;;;;4.73;4.33;;;19.90;99.90;;;;;;5027931;28;20456;-80
2021/07/04 04:12:40;;;;;;;5.20;4.50;;;19.90;99.90;;;;;;5013871;28;20481;-81
2021/07/04 04:15:10;;;;;;;4.90;4.40;;;19.90;1.00;;;;;;5030557;28;20455;-80
2021/07/04 04:17:40;;;;;;;5.63;5.13;;;19.90;1.00;;;;;;5032777;28;20559;-81
2021/07/04 04:20:09;;;;;;;4.70;3.77;;;19.90;99.90;;;;;;5033230;28;20490;-82
2021/07/04 04:22:38;;;;;;;5.03;4.53;;;19.90;99.90;;;;;;5030222;28;20502;-81
2021/07/04 04:25:08;;;;;;;5.80;4.63;;;19.90;99.90;;;;;;5038081;28;20536;-81
2021/07/04 04:27:36;;;;;;;5.20;4.30;;;19.90;1.00;;;;;;5037557;28;20559;-82
2021/07/04 04:30:06;;;;;;;4.07;3.70;;;19.90;1.00;;;;;;5032203;28;20455;-83
2021/07/04 04:32:34;;;;;;;4.70;4.30;;;19.80;99.90;;;;;;5027212;28;21009;-83
2021/07/04 04:35:04;;;;;;;5.00;4.47;;;19.90;22.60;;;;;;5027068;28;20492;-83
2021/07/04 04:37:32;;;;;;;4.13;3.80;;;19.90;1.00;;;;;;5029177;28;20520;-83
2021/07/04 04:40:00;;;;;;;4.30;3.97;;;19.90;1.00;;;;;;5032556;28;20441;-81
2021/07/04 04:42:28;;;;;;;4.60;4.13;;;19.90;99.90;;;;;;5032934;28;20480;-81
2021/07/04 04:44:57;;;;;;;5.00;4.47;;;19.90;1.00;;;;;;5031170;28;20952;-81
2021/07/04 04:47:25;;;;;;;6.73;4.83;;;19.90;1.00;;;;;;5032644;28;20448;-82
2021/07/04 04:49:53;;;;;;;7.43;4.90;;;19.80;1.00;;;;;;5031202;28;20448;-81
2021/07/04 04:52:22;;;;;;;4.40;4.00;;;19.70;99.90;;;;;;5032273;28;20469;-80
2021/07/04 04:54:51;;;;;;;4.40;4.00;;;19.80;1.00;;;;;;5031752;28;20998;-81
2021/07/04 04:57:19;;;;;;;5.70;5.17;;;19.90;99.90;;;;;;5031301;28;20448;-82
2021/07/04 04:59:47;;;;;;;4.13;3.83;;;19.90;1.00;;;;;;5031459;28;20873;-82
2021/07/04 05:02:15;;;;;;;5.37;4.43;;;19.90;1.00;;;;;;5035292;28;20459;-81
2021/07/04 05:04:43;;;;;;;5.00;4.60;;;20.00;99.90;;;;;;5031780;28;20503;-82
2021/07/04 05:07:11;;;;;;;4.90;4.00;;;20.00;99.90;;;;;;5031793;28;20449;-82
2021/07/04 05:09:40;;;;;;;5.70;5.20;;;20.10;99.90;;;;;;5032202;28;20534;-82
2021/07/04 05:12:09;;;;;;;6.30;4.40;;;20.00;99.90;;;;;;5030042;28;20456;-81
2021/07/04 05:14:37;;;;;;;7.73;4.70;;;20.00;1.00;;;;;;5033176;28;21234;-81
2021/07/04 05:17:05;;;;;;;6.00;5.50;;;19.90;99.90;;;;;;5032684;28;20479;-80
2021/07/04 05:19:33;;;;;;;8.73;5.10;;;19.90;99.90;;;;;;5026467;28;20471;-81
2021/07/04 05:22:01;;;;;;;4.10;3.80;;;19.80;99.90;;;;;;5030499;28;20463;-82
2021/07/04 05:24:29;;;;;;;5.50;4.67;;;19.90;99.90;;;;;;5031085;28;20884;-82
2021/07/04 05:26:59;;;;;;;5.10;4.33;;;20.00;99.90;;;;;;5029848;28;20519;-82
2021/07/04 05:29:27;;;;;;;4.83;4.33;;;20.00;1.00;;;;;;5028954;28;20511;-82
2021/07/04 05:31:55;;;;;;;3.73;3.53;;;20.00;1.00;;;;;;5029351;28;20470;-82
2021/07/04 05:34:23;;;;;;;4.47;3.80;;;20.00;1.00;;;;;;5030232;28;20487;-81
2021/07/04 05:36:51;;;;;;;4.37;3.97;;;20.00;99.90;;;;;;5028653;28;20500;-82
2021/07/04 05:39:19;;;;;;;3.70;3.40;;;20.00;1.00;;;;;;5027229;28;20456;-83
2021/07/04 05:41:47;;;;;;;4.20;3.73;;;20.10;99.90;;;;;;5031143;28;20498;-81
2021/07/04 05:44:17;;;;;;;4.33;3.50;;;20.10;1.00;;;;;;5019427;28;20469;-81
2021/07/04 05:46:45;;;;;;;6.30;4.37;;;20.20;1.00;;;;;;5026634;28;20464;-82
2021/07/04 05:49:13;;;;;;;4.30;3.87;;;20.20;99.90;;;;;;5029472;28;20518;-82
2021/07/04 05:51:41;;;;;;;4.70;4.30;;;20.30;99.90;;;;;;5031202;28;20455;-80
2021/07/04 05:54:10;;;;;;;4.40;4.00;;;20.30;1.00;;;;;;5032814;28;20527;-83
2021/07/04 05:56:39;;;;;;;4.60;4.00;;;20.20;13.30;;;;;;5028400;28;20572;-80
2021/07/04 05:59:07;;;;;;;6.70;3.87;;;20.20;99.90;;;;;;5030254;28;20456;-79
2021/07/04 06:01:37;;;;;;;4.07;3.70;;;20.10;99.90;;;;;;5031135;28;20460;-80
2021/07/04 06:04:06;;;;;;;5.73;4.23;;;20.20;1.00;;;;;;5028776;28;20476;-80
2021/07/04 06:06:34;;;;;;;4.20;3.90;;;20.20;99.90;;;;;;5037051;28;20505;-78
2021/07/04 06:09:02;;;;;;;5.20;4.00;;;20.20;99.90;;;;;;5027788;28;20712;-78
2021/07/04 06:11:30;;;;;;;5.37;4.17;;;20.20;99.90;;;;;;5028276;28;20456;-83
2021/07/04 06:13:59;;;;;;;4.10;3.80;;;20.20;99.90;;;;;;5029842;28;20489;-81
2021/07/04 06:16:27;;;;;;;4.20;3.90;;;20.20;1.00;;;;;;5027836;28;20491;-83
2021/07/04 06:18:57;;;;;;;10.90;3.93;;;20.30;99.90;;;;;;5029341;28;20523;-81
2021/07/04 06:21:26;;;;;;;4.40;4.00;;;20.40;1.00;;;;;;5030646;28;20464;-82
2021/07/04 06:23:54;;;;;;;5.43;4.93;;;20.40;53.80;;;;;;5029519;28;20522;-77
2021/07/04 06:26:22;;;;;;;6.77;3.47;;;20.40;99.90;;;;;;5027213;28;20452;-76
2021/07/04 06:28:50;;;;;;;4.27;3.87;;;20.40;99.90;;;;;;5027021;28;20459;-75
2021/07/04 06:31:18;;;;;;;4.10;3.70;;;20.50;1.00;;;;;;5026756;28;20460;-75
2021/07/04 06:33:48;;;;;;;4.67;3.80;;;20.50;1.00;;;;;;5028375;28;20503;-75
2021/07/04 06:36:17;;;;;;;4.77;4.37;;;20.50;1.00;;;;;;5031664;28;21017;-76
2021/07/04 06:38:46;;;;;;;4.77;3.97;;;20.40;99.90;;;;;;5027185;28;20983;-75
2021/07/04 06:41:14;;;;;;;6.13;3.90;;;20.50;1.00;;;;;;5032635;28;20491;-75
2021/07/04 06:43:42;;;;;;;3.93;3.53;;;20.50;1.00;;;;;;5027107;28;20534;-74
2021/07/04 06:46:10;;;;;;;5.20;4.60;;;20.60;1.00;;;;;;5028774;28;20488;-72
2021/07/04 06:48:39;;;;;;;4.67;4.07;;;20.60;99.90;;;;;;5029769;28;20480;-72
2021/07/04 06:51:07;;;;;;;4.33;3.93;;;20.70;1.00;;;;;;5029873;28;20975;-73
2021/07/04 06:53:37;;;;;;;4.27;3.80;;;20.70;99.90;;;;;;5030556;28;20476;-73
2021/07/04 06:56:06;;;;;;;4.30;3.90;;;20.80;1.00;;;;;;5030058;28;20487;-73
2021/07/04 06:58:34;;;;;;;3.73;3.43;;;20.90;1.00;;;;;;5026488;28;20460;-72
2021/07/04 07:01:02;;;;;;;4.30;3.80;;;21.00;99.90;;;;;;5029898;28;20464;-77
2021/07/04 07:03:31;;;;;;;4.93;3.80;;;21.10;1.00;;;;;;5012919;28;20481;-75
2021/07/04 07:05:59;;;;;;;3.90;3.60;;;21.30;1.00;;;;;;5027135;28;20478;-77
2021/07/04 07:08:27;;;;;;;4.73;4.20;;;21.30;99.90;;;;;;5031702;28;20510;-76
2021/07/04 07:10:56;;;;;;;4.80;4.30;;;21.30;1.00;;;;;;5031868;28;20460;-73
2021/07/04 07:13:24;;;;;;;3.57;3.20;;;21.40;99.90;;;;;;5032328;28;20615;-78
2021/07/04 07:15:52;;;;;;;3.77;3.43;;;21.30;99.90;;;;;;5030696;28;20487;-74
2021/07/04 07:18:21;;;;;;;4.33;3.90;;;21.40;99.90;;;;;;5032219;28;20465;-80
2021/07/04 07:20:49;;;;;;;4.00;3.27;;;21.40;99.90;;;;;;5027918;28;20503;-80
2021/07/04 07:23:17;;;;;;;6.03;4.67;;;21.40;99.90;;;;;;5032625;28;20514;-80
2021/07/04 07:25:45;;;;;;;4.13;3.50;;;21.50;1.00;;;;;;5030541;28;20459;-81
2021/07/04 07:28:15;;;;;;;3.23;2.87;;;21.40;99.90;;;;;;5018365;28;20461;-82
2021/07/04 07:30:43;;;;;;;4.23;3.93;;;21.50;99.90;;;;;;5028369;28;20963;-79
2021/07/04 07:33:11;;;;;;;5.10;3.80;;;21.50;99.90;;;;;;5031105;28;20480;-80
2021/07/04 07:35:39;;;;;;;4.30;3.90;;;21.60;99.90;;;;;;5028582;28;20472;-81
2021/07/04 07:38:09;;;;;;;4.10;3.80;;;21.70;99.90;;;;;;5030045;28;20460;-75
2021/07/04 07:40:37;;;;;;;4.57;3.43;;;21.70;99.90;;;;;;5021495;28;20460;-77
2021/07/04 07:43:06;;;;;;;4.10;3.80;;;21.70;99.90;;;;;;5030155;28;20470;-77
2021/07/04 07:45:36;;;;;;;4.33;3.60;;;21.80;1.00;;;;;;5029481;28;20857;-75
2021/07/04 07:48:05;;;;;;;4.30;3.50;;;21.80;1.00;;;;;;5031099;28;20467;-76
2021/07/04 07:50:35;;;;;;;7.20;4.10;;;21.90;99.90;;;;;;5028726;28;20454;-77
2021/07/04 07:53:04;;;;;;;3.37;2.93;;;22.00;99.90;;;;;;5029430;28;20820;-75
2021/07/04 07:55:32;;;;;;;3.40;3.10;;;22.10;1.00;;;;;;5023137;28;20507;-75
2021/07/04 07:58:00;;;;;;;3.73;3.27;;;22.10;99.90;;;;;;5024799;28;20513;-74
2021/07/04 08:00:28;;;;;;;4.77;3.80;;;22.10;99.90;;;;;;5027311;28;20463;-76
2021/07/04 08:02:58;;;;;;;4.70;4.30;;;22.10;99.90;;;;;;5030179;28;20536;-76
2021/07/04 08:05:26;;;;;;;5.83;3.43;;;22.10;99.90;;;;;;5023702;28;20456;-74
2021/07/04 08:07:55;;;;;;;3.67;3.37;;;22.10;99.90;;;;;;5031321;28;21149;-75
2021/07/04 08:10:23;;;;;;;4.53;3.97;;;22.00;99.90;;;;;;5031482;28;20507;-77
2021/07/04 08:12:51;;;;;;;3.93;3.63;;;22.00;99.90;;;;;;5023417;28;20482;-77
2021/07/04 08:15:22;;;;;;;4.40;3.90;;;22.10;99.90;;;;;;5029107;28;20848;-75
2021/07/04 08:17:51;;;;;;;3.83;3.43;;;22.10;99.90;;;;;;5030791;28;20555;-74
2021/07/04 08:20:22;;;;;;;4.00;3.60;;;22.10;99.90;;;;;;5028982;28;20502;-75
2021/07/04 08:22:50;;;;;;;5.03;3.60;;;22.20;64.70;;;;;;5028762;28;20522;-77
2021/07/04 08:25:18;;;;;;;3.73;3.43;;;22.20;79.30;;;;;;5026513;28;20743;-78
2021/07/04 08:27:47;;;;;;;3.97;3.67;;;22.20;99.90;;;;;;5018532;28;20750;-77
2021/07/04 08:30:16;;;;;;;4.00;3.60;;;22.30;99.80;;;;;;5027436;28;20504;-73
2021/07/04 08:32:45;;;;;;;3.23;3.00;;;22.40;89.20;;;;;;5028240;28;20467;-75
2021/07/04 08:35:15;;;;;;;6.00;3.60;;;22.40;71.50;;;;;;5026321;28;20480;-73
2021/07/04 08:37:44;;;;;;;5.00;4.13;;;22.40;2.90;;;;;;5027803;28;20451;-76
2021/07/04 08:40:14;;;;;;;4.43;4.00;;;22.50;1.00;;;;;;5026595;28;20952;-74
2021/07/04 08:42:42;;;;;;;5.63;3.40;;;22.50;4.80;;;;;;5027227;28;20564;-75
2021/07/04 08:45:12;;;;;;;4.13;3.37;;;22.50;1.00;;;;;;5027921;28;20514;-74
2021/07/04 08:47:40;;;;;;;3.67;2.90;;;22.50;1.00;;;;;;5025644;28;20470;-76
2021/07/04 08:50:12;;;;;;;4.10;3.70;;;22.40;1.00;;;;;;5027900;28;20463;-78
2021/07/04 08:52:41;;;;;;;4.90;4.43;;;22.40;1.00;;;;;;5028670;28;20472;-75
2021/07/04 08:55:12;;;;;;;3.63;3.30;;;22.40;1.00;;;;;;5029905;28;20998;-76
2021/07/04 08:57:40;;;;;;;3.87;3.50;;;22.40;1.00;;;;;;5030557;28;20444;-76
2021/07/04 09:00:10;;;;;;;2.93;2.83;;;22.50;1.00;;;;;;5030756;28;20455;-74
2021/07/04 09:02:39;;;;;;;5.13;3.37;;;22.60;1.00;;;;;;5024517;28;20491;-76
2021/07/04 09:05:10;;;;;;;2.83;2.63;;;22.60;1.00;;;;;;5022268;28;20522;-77
2021/07/04 09:07:40;;;;;;;2.70;2.40;;;22.60;1.00;;;;;;5026408;28;20539;-77
2021/07/04 09:10:12;;;;;;;3.23;2.93;;;22.60;1.00;;;;;;5022748;28;20460;-76
2021/07/04 09:12:42;;;;;;;3.33;3.13;;;22.70;1.00;;;;;;5024478;28;20863;-75
2021/07/04 09:15:16;;;;;;;3.00;2.80;;;22.60;1.00;;;;;;5030014;28;20440;-74
2021/07/04 09:17:46;;;;;;;3.67;3.27;;;22.60;1.00;;;;;;5028765;28;20455;-76
2021/07/04 09:20:18;;;;;;;3.60;3.03;;;22.60;1.00;;;;;;5027191;28;20994;-75
2021/07/04 09:22:51;;;;;;;3.03;2.50;;;22.60;1.00;;;;;;5018147;28;20479;-75
2021/07/04 09:25:22;;;;;;;2.13;2.03;;;22.60;1.00;;;;;;5026793;28;20458;-76
2021/07/04 09:28:05;;;;;;;2.30;2.10;;;22.70;1.00;;;;;;5016389;28;20495;-74
2021/07/04 09:30:39;;;;;;;2.93;2.73;;;22.70;1.00;;;;;;5028642;28;20459;-75
2021/07/04 09:33:16;;;;;;;4.10;3.30;;;22.70;1.00;;;;;;5019895;28;20986;-77
2021/07/04 09:35:55;;;;;;;3.50;3.20;;;22.70;1.00;;;;;;5026613;28;20522;-75
2021/07/04 09:38:25;;;;;;;2.97;2.70;;;22.70;1.00;;;;;;5026610;28;20466;-76
2021/07/04 09:40:54;;;;;;;3.43;3.17;;;22.70;1.00;;;;;;5024031;28;20460;-77
2021/07/04 09:43:22;;;;;;;3.60;3.40;;;22.70;1.00;;;;;;5021897;28;20552;-76
2021/07/04 09:45:56;;;;;;;3.40;3.10;;;22.80;1.00;;;;;;5021069;28;20503;-75
2021/07/04 09:48:39;;;;;;;3.00;2.80;;;22.80;1.00;;;;;;5024150;28;20451;-74
2021/07/04 09:51:11;;;;;;;3.60;3.30;;;22.90;1.00;;;;;;5021896;28;20447;-75
2021/07/04 09:53:41;;;;;;;3.83;3.47;;;22.80;1.00;;;;;;5031767;28;21022;-74
2021/07/04 09:56:12;;;;;;;6.77;3.60;;;22.80;1.00;;;;;;5027675;28;20476;-76
2021/07/04 09:58:42;;;;;;;2.70;2.50;;;22.70;1.00;;;;;;5023986;28;20510;-79
2021/07/04 10:01:10;;;;;;;3.50;3.20;;;22.80;1.00;;;;;;5026797;28;20460;-78
2021/07/04 10:03:42;;;;;;;3.23;2.93;;;22.80;1.00;;;;;;5028921;28;20876;-77
2021/07/04 10:06:12;;;;;;;3.43;3.13;;;22.90;1.00;;;;;;5027894;28;20441;-78
2021/07/04 10:08:41;;;;;;;3.33;3.13;;;22.90;1.00;;;;;;5030980;28;20846;-78
2021/07/04 10:11:12;;;;;;;2.87;2.67;;;22.80;1.00;;;;;;5011343;28;20464;-78
2021/07/04 10:13:42;;;;;;;2.93;2.53;;;22.90;1.00;;;;;;5014039;28;20992;-77
2021/07/04 10:16:12;;;;;;;2.80;2.57;;;22.90;1.00;;;;;;5014554;28;20542;-81
2021/07/04 10:18:43;;;;;;;3.03;2.80;;;22.90;1.00;;;;;;5031858;28;20982;-78
2021/07/04 10:21:13;;;;;;;3.30;3.00;;;22.80;1.00;;;;;;5031983;28;20484;-78
2021/07/04 10:23:46;;;;;;;3.27;2.87;;;22.80;1.00;;;;;;5032359;28;20484;-76
2021/07/04 10:26:16;;;;;;;4.53;2.97;;;22.80;1.00;;;;;;5012677;28;20851;-78
2021/07/04 10:28:46;;;;;;;3.00;2.70;;;22.70;1.00;;;;;;5024757;28;20739;-79
2021/07/04 10:31:15;;;;;;;3.73;3.30;;;22.70;1.00;;;;;;5030093;28;20495;-78
2021/07/04 10:33:45;;;;;;;3.57;3.30;;;22.60;1.00;;;;;;5033472;28;20467;-78
2021/07/04 10:36:15;;;;;;;2.83;2.63;;;22.70;1.00;;;;;;5031177;28;21003;-79
2021/07/04 10:38:49;;;;;;;2.97;2.77;;;22.70;1.00;;;;;;5033502;28;20458;-80
2021/07/04 10:41:22;;;;;;;3.37;2.80;;;22.70;1.00;;;;;;5027071;28;20948;-79
2021/07/04 10:44:06;;;;;;;3.33;3.03;;;22.70;1.00;;;;;;5033043;28;20511;-78
2021/07/04 10:47:02;;;;;;;3.93;3.40;;;22.60;1.00;;;;;;5029379;28;20440;-78
2021/07/04 10:49:39;;;;;;;3.80;3.50;;;22.70;1.00;;;;;;5026028;28;20492;-78
2021/07/04 10:52:10;;;;;;;3.00;2.77;;;22.60;1.00;;;;;;5033288;28;20459;-81
2021/07/04 10:54:59;;;;;;;3.20;2.90;;;22.60;1.00;;;;;;5035881;28;20456;-81
2021/07/04 10:57:32;;;;;;;2.90;2.70;;;22.50;1.00;;;;;;5022816;28;20485;-81
2021/07/04 11:00:19;;;;;;;2.83;2.50;;;22.50;1.00;;;;;;5033363;28;20467;-79
2021/07/04 11:02:50;;;;;;;3.20;2.50;;;22.60;1.00;;;;;;5018350;28;20484;-82
2021/07/04 11:05:39;;;;;;;4.00;3.60;;;22.60;1.00;;;;;;5033241;28;20727;-82
2021/07/04 11:08:12;;;;;;;3.93;3.63;;;22.70;1.00;;;;;;5020303;28;20472;-81
2021/07/04 11:10:52;;;;;;;3.10;2.80;;;22.70;1.00;;;;;;5027950;28;20448;-81
2021/07/04 11:13:36;;;;;;;4.47;3.20;;;22.70;1.00;;;;;;5035037;28;20871;-81
2021/07/04 11:16:19;;;;;;;3.50;2.50;;;22.70;1.00;;;;;;5032879;28;20468;-82
2021/07/04 11:18:51;;;;;;;3.00;2.80;;;22.80;1.00;;;;;;5019870;28;20483;-82
2021/07/04 11:21:21;;;;;;;3.50;3.20;;;22.90;1.00;;;;;;5033634;28;20532;-82
2021/07/04 11:24:15;;;;;;;3.50;3.20;;;23.00;1.00;;;;;;5026070;28;20568;-81
2021/07/04 11:27:24;;;;;;;4.40;3.70;;;23.00;1.00;;;;;;5028953;28;20444;-80
2021/07/04 11:30:25;;;;;;;2.70;2.43;;;23.10;99.90;;;;;;5034304;28;20884;-81
2021/07/04 11:33:37;;;;;;;3.97;2.43;;;23.10;99.90;;;;;;5025924;28;20471;-82
2021/07/04 11:36:07;;;;;;;3.40;2.43;;;23.00;99.90;;;;;;5031953;28;20811;-81
2021/07/04 11:38:39;;;;;;;2.83;2.63;;;23.10;99.90;;;;;;5031298;28;20486;-82
2021/07/04 11:41:09;;;;;;;2.50;2.30;;;23.10;99.90;;;;;;5025338;28;20459;-82
2021/07/04 11:43:40;;;;;;;3.23;3.03;;;23.00;99.90;;;;;;5028739;28;20468;-82
2021/07/04 11:46:12;;;;;;;3.93;3.00;;;23.10;99.90;;;;;;5035320;28;20448;-82
2021/07/04 11:48:49;;;;;;;3.30;3.03;;;23.10;99.90;;;;;;5032966;28;20502;-82
2021/07/04 11:51:25;;;;;;;3.47;3.20;;;23.00;99.90;;;;;;5031215;28;20498;-81
2021/07/04 11:53:55;;;;;;;3.50;3.30;;;22.90;99.90;;;;;;5032398;28;20526;-81
2021/07/04 11:56:24;;;;;;;6.23;3.37;;;22.80;99.90;;;;;;5034042;28;20468;-81
2021/07/04 11:58:52;;;;;;;4.30;3.00;;;22.70;99.90;;;;;;5033449;28;20480;-82
2021/07/04 12:01:23;;;;;;;3.40;3.10;;;22.70;99.90;;;;;;5029351;28;20515;-81
2021/07/04 12:03:53;;;;;;;2.80;2.60;;;22.70;99.90;;;;;;5030797;28;20914;-81
2021/07/04 12:06:21;;;;;;;3.00;2.80;;;22.80;99.90;;;;;;5033438;28;20460;-81
2021/07/04 12:08:55;;;;;;;3.07;2.87;;;22.90;99.90;;;;;;5027682;28;20443;-81
2021/07/04 12:11:48;;;;;;;4.33;3.17;;;22.90;99.90;;;;;;5028683;28;20452;-81
2021/07/04 12:14:30;;;;;;;3.73;3.33;;;23.00;99.90;;;;;;5029283;28;20480;-81
2021/07/04 12:17:17;;;;;;;3.83;3.43;;;23.00;99.90;;;;;;5032815;28;20514;-83
2021/07/04 12:19:49;;;;;;;3.80;2.80;;;23.10;99.90;;;;;;5023045;28;20526;-82
2021/07/04 12:22:21;;;;;;;3.23;3.00;;;23.20;99.90;;;;;;5029317;28;20515;-77
2021/07/04 12:24:50;;;;;;;3.57;3.03;;;23.20;1.00;;;;;;5026402;28;20446;-77
2021/07/04 12:27:19;;;;;;;3.73;3.33;;;23.30;1.00;;;;;;5025229;28;21079;-78
2021/07/04 12:30:19;;;;;;;3.47;3.17;;;23.30;99.90;;;;;;5026674;28;20516;-77
2021/07/04 12:32:52;;;;;;;4.73;2.97;;;23.40;99.90;;;;;;4982373;28;20480;-78
2021/07/04 12:35:29;;;;;;;3.03;2.83;;;23.50;1.00;;;;;;5030355;28;20532;-77
2021/07/04 12:37:59;;;;;;;2.60;2.40;;;23.50;99.90;;;;;;5029220;28;20495;-79
2021/07/04 12:40:30;;;;;;;2.10;2.00;;;23.50;99.90;;;;;;5025404;28;20499;-78
2021/07/04 12:43:10;;;;;;;2.03;1.80;;;23.60;99.90;;;;;;5028563;28;20534;-78
2021/07/04 12:45:44;;;;;;;1.87;1.77;;;23.60;99.90;;;;;;5025971;28;20495;-77
2021/07/04 12:48:15;;;;;;;2.37;2.00;;;23.70;99.90;;;;;;5025242;28;20514;-78
2021/07/04 12:50:55;;;;;;;1.70;1.60;;;23.70;99.90;;;;;;5027452;28;20629;-77
2021/07/04 12:53:35;;;;;;;3.30;2.37;;;23.60;99.90;;;;;;5042574;28;20479;-75
2021/07/04 12:56:04;;;;;;;2.10;1.90;;;23.70;99.90;;;;;;5023980;28;20551;-77
2021/07/04 12:58:38;;;;;;;1.83;1.70;;;23.80;99.90;;;;;;5024427;28;20992;-79
2021/07/04 13:01:19;;;;;;;1.83;1.30;;;23.80;99.90;;;;;;5027132;28;20939;-79
2021/07/04 13:03:58;;;;;;;2.07;1.87;;;23.80;99.90;;;;;;5024916;28;20472;-78
2021/07/04 13:06:42;;;;;;;1.77;1.67;;;23.90;99.90;;;;;;5021605;28;20459;-79